sensor_id;sensor_type;location;lat;lon;timestamp;P1;durP1;ratioP1;P2;durP2;ratioP2
52210;SDS011;38179;52.756;6.906;2022-12-18T00:01:24;100.80;;;39.00;;
52210;SDS011;38179;52.756;6.906;2022-12-18T00:03:52;102.85;;;38.75;;
52210;SDS011;38179;52.756;6.906;2022-12-18T00:06:19;97.47;;;38.63;;
52210;SDS011;38179;52.756;6.906;2022-12-18T00:08:46;105.78;;;40.25;;
52210;SDS011;38179;52.756;6.906;2022-12-18T00:11:16;102.10;;;38.03;;
52210;SDS011;38179;52.756;6.906;2022-12-18T00:13:44;104.47;;;39.08;;
52210;SDS011;38179;52.756;6.906;2022-12-18T00:16:11;103.38;;;36.75;;
52210;SDS011;38179;52.756;6.906;2022-12-18T00:18:39;100.35;;;37.88;;
52210;SDS011;38179;52.756;6.906;2022-12-18T00:21:06;105.93;;;38.88;;
52210;SDS011;38179;52.756;6.906;2022-12-18T00:23:34;101.30;;;38.15;;
52210;SDS011;38179;52.756;6.906;2022-12-18T00:26:02;91.28;;;37.35;;
52210;SDS011;38179;52.756;6.906;2022-12-18T00:28:29;100.40;;;38.72;;
52210;SDS011;38179;52.756;6.906;2022-12-18T00:31:02;88.97;;;36.58;;
52210;SDS011;38179;52.756;6.906;2022-12-18T00:33:29;87.70;;;35.42;;
52210;SDS011;38179;52.756;6.906;2022-12-18T00:36:00;93.10;;;36.33;;
52210;SDS011;38179;52.756;6.906;2022-12-18T00:38:26;92.68;;;38.13;;
52210;SDS011;38179;52.756;6.906;2022-12-18T00:40:52;88.72;;;35.80;;
52210;SDS011;38179;52.756;6.906;2022-12-18T00:43:18;91.72;;;36.03;;
52210;SDS011;38179;52.756;6.906;2022-12-18T00:45:44;97.45;;;37.47;;
52210;SDS011;38179;52.756;6.906;2022-12-18T00:48:11;93.13;;;35.58;;
52210;SDS011;38179;52.756;6.906;2022-12-18T00:50:36;84.05;;;35.90;;
52210;SDS011;38179;52.756;6.906;2022-12-18T00:53:03;81.47;;;35.58;;
52210;SDS011;38179;52.756;6.906;2022-12-18T00:55:29;89.10;;;34.75;;
52210;SDS011;38179;52.756;6.906;2022-12-18T00:57:55;80.65;;;33.97;;
52210;SDS011;38179;52.756;6.906;2022-12-18T01:00:21;87.05;;;34.90;;
52210;SDS011;38179;52.756;6.906;2022-12-18T01:02:47;81.50;;;34.08;;
52210;SDS011;38179;52.756;6.906;2022-12-18T01:05:13;91.20;;;35.95;;
52210;SDS011;38179;52.756;6.906;2022-12-18T01:07:40;98.47;;;36.75;;
52210;SDS011;38179;52.756;6.906;2022-12-18T01:10:07;86.88;;;34.78;;
52210;SDS011;38179;52.756;6.906;2022-12-18T01:12:36;92.38;;;34.60;;
52210;SDS011;38179;52.756;6.906;2022-12-18T01:15:02;98.03;;;37.35;;
52210;SDS011;38179;52.756;6.906;2022-12-18T01:17:30;103.65;;;39.85;;
52210;SDS011;38179;52.756;6.906;2022-12-18T01:19:56;123.32;;;42.35;;
52210;SDS011;38179;52.756;6.906;2022-12-18T01:22:22;118.53;;;41.45;;
52210;SDS011;38179;52.756;6.906;2022-12-18T01:24:48;110.82;;;39.40;;
52210;SDS011;38179;52.756;6.906;2022-12-18T01:27:13;116.03;;;40.15;;
52210;SDS011;38179;52.756;6.906;2022-12-18T01:29:39;100.38;;;38.30;;
52210;SDS011;38179;52.756;6.906;2022-12-18T01:32:05;121.72;;;40.22;;
52210;SDS011;38179;52.756;6.906;2022-12-18T01:34:31;105.00;;;40.45;;
52210;SDS011;38179;52.756;6.906;2022-12-18T01:36:57;108.07;;;37.15;;
52210;SDS011;38179;52.756;6.906;2022-12-18T01:39:23;90.88;;;37.10;;
52210;SDS011;38179;52.756;6.906;2022-12-18T01:41:50;92.25;;;35.65;;
52210;SDS011;38179;52.756;6.906;2022-12-18T01:49:49;73.15;;;33.92;;
52210;SDS011;38179;52.756;6.906;2022-12-18T01:52:16;80.93;;;33.78;;
52210;SDS011;38179;52.756;6.906;2022-12-18T01:54:43;74.45;;;34.17;;
52210;SDS011;38179;52.756;6.906;2022-12-18T01:57:10;70.18;;;30.08;;
52210;SDS011;38179;52.756;6.906;2022-12-18T01:59:36;71.07;;;31.00;;
52210;SDS011;38179;52.756;6.906;2022-12-18T02:02:02;65.28;;;29.73;;
52210;SDS011;38179;52.756;6.906;2022-12-18T02:04:30;73.43;;;30.05;;
52210;SDS011;38179;52.756;6.906;2022-12-18T02:09:35;62.28;;;27.70;;
52210;SDS011;38179;52.756;6.906;2022-12-18T02:12:26;73.72;;;31.55;;
52210;SDS011;38179;52.756;6.906;2022-12-18T02:15:07;73.70;;;29.38;;
52210;SDS011;38179;52.756;6.906;2022-12-18T02:17:46;86.10;;;28.35;;
52210;SDS011;38179;52.756;6.906;2022-12-18T02:20:52;63.33;;;27.52;;
52210;SDS011;38179;52.756;6.906;2022-12-18T02:28:53;59.05;;;26.88;;
52210;SDS011;38179;52.756;6.906;2022-12-18T02:31:49;66.75;;;28.95;;
52210;SDS011;38179;52.756;6.906;2022-12-18T02:34:19;62.72;;;26.23;;
52210;SDS011;38179;52.756;6.906;2022-12-18T02:36:49;65.45;;;26.90;;
52210;SDS011;38179;52.756;6.906;2022-12-18T02:39:17;60.20;;;26.52;;
52210;SDS011;38179;52.756;6.906;2022-12-18T02:41:45;68.43;;;26.98;;
52210;SDS011;38179;52.756;6.906;2022-12-18T02:44:12;68.47;;;27.83;;
52210;SDS011;38179;52.756;6.906;2022-12-18T02:52:07;60.33;;;27.35;;
52210;SDS011;38179;52.756;6.906;2022-12-18T03:00:14;58.78;;;27.42;;
52210;SDS011;38179;52.756;6.906;2022-12-18T03:02:46;62.13;;;24.85;;
52210;SDS011;38179;52.756;6.906;2022-12-18T03:07:54;54.70;;;26.13;;
52210;SDS011;38179;52.756;6.906;2022-12-18T03:10:30;59.28;;;26.38;;
52210;SDS011;38179;52.756;6.906;2022-12-18T03:13:02;64.25;;;26.13;;
52210;SDS011;38179;52.756;6.906;2022-12-18T03:15:38;54.53;;;24.40;;
52210;SDS011;38179;52.756;6.906;2022-12-18T03:18:21;55.90;;;25.45;;
52210;SDS011;38179;52.756;6.906;2022-12-18T03:20:51;55.25;;;24.60;;
52210;SDS011;38179;52.756;6.906;2022-12-18T03:23:24;63.72;;;25.88;;
52210;SDS011;38179;52.756;6.906;2022-12-18T03:25:54;52.38;;;25.50;;
52210;SDS011;38179;52.756;6.906;2022-12-18T03:28:24;58.47;;;25.70;;
52210;SDS011;38179;52.756;6.906;2022-12-18T03:30:56;63.85;;;25.60;;
52210;SDS011;38179;52.756;6.906;2022-12-18T03:33:28;58.65;;;27.20;;
52210;SDS011;38179;52.756;6.906;2022-12-18T03:38:30;56.50;;;26.20;;
52210;SDS011;38179;52.756;6.906;2022-12-18T03:40:59;49.03;;;22.73;;
52210;SDS011;38179;52.756;6.906;2022-12-18T03:43:43;51.15;;;25.38;;
52210;SDS011;38179;52.756;6.906;2022-12-18T03:46:45;48.00;;;23.35;;
52210;SDS011;38179;52.756;6.906;2022-12-18T03:49:23;49.38;;;22.98;;
52210;SDS011;38179;52.756;6.906;2022-12-18T03:52:02;52.03;;;23.80;;
52210;SDS011;38179;52.756;6.906;2022-12-18T03:54:32;51.40;;;23.30;;
52210;SDS011;38179;52.756;6.906;2022-12-18T03:57:05;46.65;;;23.65;;
52210;SDS011;38179;52.756;6.906;2022-12-18T03:59:39;45.90;;;21.83;;
52210;SDS011;38179;52.756;6.906;2022-12-18T04:02:06;46.65;;;21.38;;
52210;SDS011;38179;52.756;6.906;2022-12-18T04:04:34;48.33;;;22.63;;
52210;SDS011;38179;52.756;6.906;2022-12-18T04:07:02;47.42;;;22.92;;
52210;SDS011;38179;52.756;6.906;2022-12-18T04:09:30;43.70;;;22.08;;
52210;SDS011;38179;52.756;6.906;2022-12-18T04:11:58;45.83;;;22.88;;
52210;SDS011;38179;52.756;6.906;2022-12-18T04:14:23;49.22;;;23.40;;
52210;SDS011;38179;52.756;6.906;2022-12-18T04:16:49;46.78;;;21.92;;
52210;SDS011;38179;52.756;6.906;2022-12-18T04:19:15;50.38;;;23.08;;
52210;SDS011;38179;52.756;6.906;2022-12-18T04:21:41;42.58;;;21.92;;
52210;SDS011;38179;52.756;6.906;2022-12-18T04:24:07;49.72;;;23.17;;
52210;SDS011;38179;52.756;6.906;2022-12-18T04:26:33;45.17;;;22.48;;
52210;SDS011;38179;52.756;6.906;2022-12-18T04:28:59;46.13;;;22.40;;
52210;SDS011;38179;52.756;6.906;2022-12-18T04:31:25;47.15;;;22.40;;
52210;SDS011;38179;52.756;6.906;2022-12-18T04:33:52;45.90;;;23.55;;
52210;SDS011;38179;52.756;6.906;2022-12-18T04:36:18;44.50;;;20.92;;
52210;SDS011;38179;52.756;6.906;2022-12-18T04:38:44;46.80;;;23.02;;
52210;SDS011;38179;52.756;6.906;2022-12-18T04:41:12;48.80;;;22.38;;
52210;SDS011;38179;52.756;6.906;2022-12-18T04:43:38;43.80;;;21.50;;
52210;SDS011;38179;52.756;6.906;2022-12-18T04:46:05;43.70;;;20.88;;
52210;SDS011;38179;52.756;6.906;2022-12-18T04:48:32;45.08;;;21.42;;
52210;SDS011;38179;52.756;6.906;2022-12-18T04:50:58;47.30;;;22.13;;
52210;SDS011;38179;52.756;6.906;2022-12-18T04:53:24;41.00;;;22.05;;
52210;SDS011;38179;52.756;6.906;2022-12-18T04:55:50;45.63;;;22.85;;
52210;SDS011;38179;52.756;6.906;2022-12-18T04:58:26;45.58;;;21.65;;
52210;SDS011;38179;52.756;6.906;2022-12-18T05:00:52;44.22;;;20.88;;
52210;SDS011;38179;52.756;6.906;2022-12-18T05:03:18;43.53;;;21.35;;
52210;SDS011;38179;52.756;6.906;2022-12-18T05:05:44;44.88;;;21.48;;
52210;SDS011;38179;52.756;6.906;2022-12-18T05:08:09;43.70;;;22.73;;
52210;SDS011;38179;52.756;6.906;2022-12-18T05:10:35;44.63;;;20.70;;
52210;SDS011;38179;52.756;6.906;2022-12-18T05:13:01;46.75;;;22.40;;
52210;SDS011;38179;52.756;6.906;2022-12-18T05:15:31;44.90;;;22.58;;
52210;SDS011;38179;52.756;6.906;2022-12-18T05:17:58;40.72;;;19.88;;
52210;SDS011;38179;52.756;6.906;2022-12-18T05:20:25;45.05;;;22.60;;
52210;SDS011;38179;52.756;6.906;2022-12-18T05:22:52;44.30;;;21.90;;
52210;SDS011;38179;52.756;6.906;2022-12-18T05:25:18;38.35;;;20.55;;
52210;SDS011;38179;52.756;6.906;2022-12-18T05:27:45;43.30;;;21.27;;
52210;SDS011;38179;52.756;6.906;2022-12-18T05:30:11;43.80;;;21.75;;
52210;SDS011;38179;52.756;6.906;2022-12-18T05:32:38;44.92;;;22.02;;
52210;SDS011;38179;52.756;6.906;2022-12-18T05:35:05;43.15;;;20.27;;
52210;SDS011;38179;52.756;6.906;2022-12-18T05:37:32;45.00;;;23.23;;
52210;SDS011;38179;52.756;6.906;2022-12-18T05:39:58;42.78;;;21.92;;
52210;SDS011;38179;52.756;6.906;2022-12-18T05:42:24;39.50;;;20.52;;
52210;SDS011;38179;52.756;6.906;2022-12-18T05:44:53;42.13;;;21.52;;
52210;SDS011;38179;52.756;6.906;2022-12-18T05:47:19;42.28;;;20.15;;
52210;SDS011;38179;52.756;6.906;2022-12-18T05:49:45;45.40;;;21.67;;
52210;SDS011;38179;52.756;6.906;2022-12-18T05:52:11;42.33;;;21.10;;
52210;SDS011;38179;52.756;6.906;2022-12-18T05:54:37;39.20;;;21.30;;
52210;SDS011;38179;52.756;6.906;2022-12-18T05:57:04;38.05;;;19.98;;
52210;SDS011;38179;52.756;6.906;2022-12-18T05:59:29;42.03;;;21.25;;
52210;SDS011;38179;52.756;6.906;2022-12-18T06:01:55;39.88;;;20.35;;
52210;SDS011;38179;52.756;6.906;2022-12-18T06:04:21;40.30;;;21.65;;
52210;SDS011;38179;52.756;6.906;2022-12-18T06:06:47;38.10;;;20.17;;
52210;SDS011;38179;52.756;6.906;2022-12-18T06:09:13;37.30;;;19.40;;
52210;SDS011;38179;52.756;6.906;2022-12-18T06:11:39;38.25;;;19.85;;
52210;SDS011;38179;52.756;6.906;2022-12-18T06:14:05;36.30;;;19.42;;
52210;SDS011;38179;52.756;6.906;2022-12-18T06:16:32;39.17;;;19.70;;
52210;SDS011;38179;52.756;6.906;2022-12-18T06:18:58;35.65;;;19.40;;
52210;SDS011;38179;52.756;6.906;2022-12-18T06:21:25;39.75;;;19.25;;
52210;SDS011;38179;52.756;6.906;2022-12-18T06:23:51;41.63;;;20.92;;
52210;SDS011;38179;52.756;6.906;2022-12-18T06:26:17;34.90;;;19.27;;
52210;SDS011;38179;52.756;6.906;2022-12-18T06:28:43;42.85;;;21.38;;
52210;SDS011;38179;52.756;6.906;2022-12-18T06:31:09;38.10;;;20.25;;
52210;SDS011;38179;52.756;6.906;2022-12-18T06:33:35;35.90;;;18.98;;
52210;SDS011;38179;52.756;6.906;2022-12-18T06:36:06;35.47;;;19.67;;
52210;SDS011;38179;52.756;6.906;2022-12-18T06:38:35;39.33;;;20.80;;
52210;SDS011;38179;52.756;6.906;2022-12-18T06:41:20;38.50;;;19.25;;
52210;SDS011;38179;52.756;6.906;2022-12-18T06:43:47;36.97;;;19.35;;
52210;SDS011;38179;52.756;6.906;2022-12-18T06:46:13;34.35;;;18.88;;
52210;SDS011;38179;52.756;6.906;2022-12-18T06:48:39;39.47;;;19.38;;
52210;SDS011;38179;52.756;6.906;2022-12-18T06:51:05;37.60;;;20.25;;
52210;SDS011;38179;52.756;6.906;2022-12-18T06:53:31;40.10;;;20.50;;
52210;SDS011;38179;52.756;6.906;2022-12-18T06:56:01;38.92;;;19.98;;
52210;SDS011;38179;52.756;6.906;2022-12-18T06:58:31;34.95;;;18.88;;
52210;SDS011;38179;52.756;6.906;2022-12-18T07:01:01;39.95;;;19.67;;
52210;SDS011;38179;52.756;6.906;2022-12-18T07:03:28;38.13;;;20.17;;
52210;SDS011;38179;52.756;6.906;2022-12-18T07:05:54;37.95;;;21.02;;
52210;SDS011;38179;52.756;6.906;2022-12-18T07:08:20;39.78;;;20.90;;
52210;SDS011;38179;52.756;6.906;2022-12-18T07:10:46;35.70;;;19.20;;
52210;SDS011;38179;52.756;6.906;2022-12-18T07:13:14;36.70;;;19.73;;
52210;SDS011;38179;52.756;6.906;2022-12-18T07:15:41;36.30;;;19.95;;
52210;SDS011;38179;52.756;6.906;2022-12-18T07:18:08;35.03;;;18.52;;
52210;SDS011;38179;52.756;6.906;2022-12-18T07:20:34;34.00;;;17.83;;
52210;SDS011;38179;52.756;6.906;2022-12-18T07:23:02;34.47;;;17.90;;
52210;SDS011;38179;52.756;6.906;2022-12-18T07:25:28;30.00;;;17.35;;
52210;SDS011;38179;52.756;6.906;2022-12-18T07:27:54;35.58;;;17.83;;
52210;SDS011;38179;52.756;6.906;2022-12-18T07:30:20;34.70;;;18.00;;
52210;SDS011;38179;52.756;6.906;2022-12-18T07:32:46;31.52;;;17.42;;
52210;SDS011;38179;52.756;6.906;2022-12-18T07:35:12;31.60;;;18.13;;
52210;SDS011;38179;52.756;6.906;2022-12-18T07:37:38;38.10;;;18.92;;
52210;SDS011;38179;52.756;6.906;2022-12-18T07:40:04;33.40;;;18.13;;
52210;SDS011;38179;52.756;6.906;2022-12-18T07:42:31;30.73;;;16.02;;
52210;SDS011;38179;52.756;6.906;2022-12-18T07:45:00;29.05;;;15.48;;
52210;SDS011;38179;52.756;6.906;2022-12-18T07:47:29;30.92;;;15.90;;
52210;SDS011;38179;52.756;6.906;2022-12-18T07:49:55;27.10;;;15.35;;
52210;SDS011;38179;52.756;6.906;2022-12-18T07:52:21;32.67;;;17.10;;
52210;SDS011;38179;52.756;6.906;2022-12-18T07:54:47;32.70;;;16.38;;
52210;SDS011;38179;52.756;6.906;2022-12-18T08:08:27;25.73;;;14.60;;
52210;SDS011;38179;52.756;6.906;2022-12-18T08:10:53;29.17;;;14.98;;
52210;SDS011;38179;52.756;6.906;2022-12-18T08:13:19;26.27;;;14.55;;
52210;SDS011;38179;52.756;6.906;2022-12-18T08:15:45;25.67;;;14.35;;
52210;SDS011;38179;52.756;6.906;2022-12-18T08:18:11;28.90;;;14.10;;
52210;SDS011;38179;52.756;6.906;2022-12-18T08:20:37;24.58;;;12.85;;
52210;SDS011;38179;52.756;6.906;2022-12-18T08:23:03;29.67;;;15.05;;
52210;SDS011;38179;52.756;6.906;2022-12-18T08:25:29;23.25;;;12.57;;
52210;SDS011;38179;52.756;6.906;2022-12-18T08:27:54;24.85;;;14.32;;
52210;SDS011;38179;52.756;6.906;2022-12-18T08:30:21;23.10;;;13.57;;
52210;SDS011;38179;52.756;6.906;2022-12-18T08:32:50;23.30;;;12.90;;
52210;SDS011;38179;52.756;6.906;2022-12-18T08:35:18;21.42;;;12.63;;
52210;SDS011;38179;52.756;6.906;2022-12-18T08:37:43;21.90;;;13.18;;
52210;SDS011;38179;52.756;6.906;2022-12-18T08:40:09;24.05;;;13.18;;
52210;SDS011;38179;52.756;6.906;2022-12-18T08:42:36;20.45;;;12.68;;
52210;SDS011;38179;52.756;6.906;2022-12-18T08:45:20;22.77;;;12.55;;
52210;SDS011;38179;52.756;6.906;2022-12-18T08:47:46;21.65;;;11.98;;
52210;SDS011;38179;52.756;6.906;2022-12-18T08:50:12;21.85;;;12.73;;
52210;SDS011;38179;52.756;6.906;2022-12-18T08:52:38;21.00;;;11.13;;
52210;SDS011;38179;52.756;6.906;2022-12-18T08:55:03;20.80;;;11.25;;
52210;SDS011;38179;52.756;6.906;2022-12-18T08:57:30;19.77;;;10.90;;
52210;SDS011;38179;52.756;6.906;2022-12-18T08:59:56;19.08;;;11.20;;
52210;SDS011;38179;52.756;6.906;2022-12-18T09:02:21;19.50;;;11.85;;
52210;SDS011;38179;52.756;6.906;2022-12-18T09:04:47;18.70;;;11.15;;
52210;SDS011;38179;52.756;6.906;2022-12-18T09:07:13;21.25;;;10.65;;
52210;SDS011;38179;52.756;6.906;2022-12-18T09:09:39;18.55;;;9.85;;
52210;SDS011;38179;52.756;6.906;2022-12-18T09:12:05;19.77;;;10.60;;
52210;SDS011;38179;52.756;6.906;2022-12-18T09:14:31;17.33;;;10.30;;
52210;SDS011;38179;52.756;6.906;2022-12-18T09:16:57;17.52;;;9.55;;
52210;SDS011;38179;52.756;6.906;2022-12-18T09:19:22;17.88;;;10.63;;
52210;SDS011;38179;52.756;6.906;2022-12-18T09:21:48;15.20;;;9.50;;
52210;SDS011;38179;52.756;6.906;2022-12-18T09:24:15;18.52;;;9.48;;
52210;SDS011;38179;52.756;6.906;2022-12-18T09:26:41;17.52;;;9.60;;
52210;SDS011;38179;52.756;6.906;2022-12-18T09:29:07;17.33;;;9.32;;
52210;SDS011;38179;52.756;6.906;2022-12-18T09:31:34;17.05;;;9.77;;
52210;SDS011;38179;52.756;6.906;2022-12-18T09:34:01;16.15;;;9.65;;
52210;SDS011;38179;52.756;6.906;2022-12-18T09:36:27;15.80;;;10.15;;
52210;SDS011;38179;52.756;6.906;2022-12-18T09:38:52;17.58;;;9.90;;
52210;SDS011;38179;52.756;6.906;2022-12-18T09:44:10;17.52;;;10.02;;
52210;SDS011;38179;52.756;6.906;2022-12-18T09:46:53;17.38;;;10.52;;
52210;SDS011;38179;52.756;6.906;2022-12-18T09:49:33;19.02;;;10.20;;
52210;SDS011;38179;52.756;6.906;2022-12-18T09:55:00;18.65;;;9.95;;
52210;SDS011;38179;52.756;6.906;2022-12-18T09:57:55;16.08;;;8.88;;
52210;SDS011;38179;52.756;6.906;2022-12-18T10:00:26;17.02;;;9.63;;
52210;SDS011;38179;52.756;6.906;2022-12-18T10:02:53;17.00;;;9.57;;
52210;SDS011;38179;52.756;6.906;2022-12-18T10:08:25;14.90;;;9.23;;
52210;SDS011;38179;52.756;6.906;2022-12-18T10:17:11;16.52;;;9.25;;
52210;SDS011;38179;52.756;6.906;2022-12-18T10:19:51;14.98;;;8.88;;
52210;SDS011;38179;52.756;6.906;2022-12-18T10:25:15;17.88;;;9.57;;
52210;SDS011;38179;52.756;6.906;2022-12-18T10:27:45;14.93;;;8.50;;
52210;SDS011;38179;52.756;6.906;2022-12-18T10:30:12;14.52;;;8.98;;
52210;SDS011;38179;52.756;6.906;2022-12-18T10:32:40;16.08;;;8.63;;
52210;SDS011;38179;52.756;6.906;2022-12-18T10:40:51;14.50;;;8.43;;
52210;SDS011;38179;52.756;6.906;2022-12-18T10:43:31;14.45;;;9.13;;
52210;SDS011;38179;52.756;6.906;2022-12-18T10:48:47;12.65;;;8.43;;
52210;SDS011;38179;52.756;6.906;2022-12-18T10:51:28;15.95;;;8.93;;
52210;SDS011;38179;52.756;6.906;2022-12-18T10:56:41;15.65;;;8.60;;
52210;SDS011;38179;52.756;6.906;2022-12-18T10:59:08;14.15;;;8.75;;
52210;SDS011;38179;52.756;6.906;2022-12-18T11:01:55;16.65;;;8.48;;
52210;SDS011;38179;52.756;6.906;2022-12-18T11:07:04;16.13;;;9.27;;
52210;SDS011;38179;52.756;6.906;2022-12-18T11:09:33;15.30;;;8.88;;
52210;SDS011;38179;52.756;6.906;2022-12-18T11:12:00;13.98;;;9.18;;
52210;SDS011;38179;52.756;6.906;2022-12-18T11:14:34;13.65;;;8.63;;
52210;SDS011;38179;52.756;6.906;2022-12-18T11:23:25;16.95;;;8.77;;
52210;SDS011;38179;52.756;6.906;2022-12-18T11:25:50;19.55;;;9.80;;
52210;SDS011;38179;52.756;6.906;2022-12-18T11:31:27;16.85;;;9.70;;
52210;SDS011;38179;52.756;6.906;2022-12-18T11:44:51;13.93;;;8.75;;
52210;SDS011;38179;52.756;6.906;2022-12-18T11:50:17;15.75;;;9.73;;
52210;SDS011;38179;52.756;6.906;2022-12-18T11:52:47;17.42;;;9.75;;
52210;SDS011;38179;52.756;6.906;2022-12-18T11:55:14;15.52;;;9.38;;
52210;SDS011;38179;52.756;6.906;2022-12-18T11:58:09;17.02;;;9.60;;
52210;SDS011;38179;52.756;6.906;2022-12-18T12:15:32;15.80;;;9.18;;
52210;SDS011;38179;52.756;6.906;2022-12-18T12:18:17;14.35;;;9.20;;
52210;SDS011;38179;52.756;6.906;2022-12-18T12:32:13;19.05;;;9.95;;
52210;SDS011;38179;52.756;6.906;2022-12-18T12:40:20;21.13;;;9.13;;
52210;SDS011;38179;52.756;6.906;2022-12-18T12:42:54;16.98;;;9.48;;
52210;SDS011;38179;52.756;6.906;2022-12-18T12:48:10;15.40;;;9.43;;
52210;SDS011;38179;52.756;6.906;2022-12-18T12:50:46;15.65;;;10.02;;
52210;SDS011;38179;52.756;6.906;2022-12-18T12:53:16;18.33;;;10.30;;
52210;SDS011;38179;52.756;6.906;2022-12-18T12:55:59;15.63;;;9.38;;
52210;SDS011;38179;52.756;6.906;2022-12-18T13:01:04;17.10;;;9.70;;
52210;SDS011;38179;52.756;6.906;2022-12-18T13:03:50;19.45;;;10.95;;
52210;SDS011;38179;52.756;6.906;2022-12-18T13:08:59;16.48;;;10.40;;
52210;SDS011;38179;52.756;6.906;2022-12-18T13:11:36;14.23;;;9.65;;
52210;SDS011;38179;52.756;6.906;2022-12-18T13:14:34;15.27;;;10.27;;
52210;SDS011;38179;52.756;6.906;2022-12-18T13:20:09;17.45;;;10.88;;
52210;SDS011;38179;52.756;6.906;2022-12-18T13:22:38;16.92;;;10.18;;
52210;SDS011;38179;52.756;6.906;2022-12-18T13:30:41;14.88;;;9.98;;
52210;SDS011;38179;52.756;6.906;2022-12-18T13:40:58;15.23;;;10.00;;
52210;SDS011;38179;52.756;6.906;2022-12-18T13:51:42;14.65;;;9.88;;
52210;SDS011;38179;52.756;6.906;2022-12-18T13:54:24;17.25;;;10.55;;
52210;SDS011;38179;52.756;6.906;2022-12-18T13:57:05;17.65;;;10.40;;
52210;SDS011;38179;52.756;6.906;2022-12-18T13:59:50;16.52;;;10.57;;
52210;SDS011;38179;52.756;6.906;2022-12-18T14:02:18;15.80;;;10.02;;
52210;SDS011;38179;52.756;6.906;2022-12-18T14:04:48;17.33;;;10.70;;
52210;SDS011;38179;52.756;6.906;2022-12-18T14:07:17;17.38;;;10.65;;
52210;SDS011;38179;52.756;6.906;2022-12-18T14:09:47;16.67;;;10.68;;
52210;SDS011;38179;52.756;6.906;2022-12-18T14:12:17;17.10;;;9.98;;
52210;SDS011;38179;52.756;6.906;2022-12-18T14:15:06;15.05;;;10.10;;
52210;SDS011;38179;52.756;6.906;2022-12-18T14:17:48;16.50;;;10.45;;
52210;SDS011;38179;52.756;6.906;2022-12-18T14:20:16;16.35;;;10.80;;
52210;SDS011;38179;52.756;6.906;2022-12-18T14:22:46;16.92;;;10.52;;
52210;SDS011;38179;52.756;6.906;2022-12-18T14:25:20;17.23;;;10.75;;
52210;SDS011;38179;52.756;6.906;2022-12-18T14:27:51;17.80;;;10.82;;
52210;SDS011;38179;52.756;6.906;2022-12-18T14:30:36;18.65;;;11.05;;
52210;SDS011;38179;52.756;6.906;2022-12-18T14:35:37;23.70;;;12.20;;
52210;SDS011;38179;52.756;6.906;2022-12-18T14:43:21;16.50;;;11.05;;
52210;SDS011;38179;52.756;6.906;2022-12-18T14:45:47;16.05;;;10.45;;
52210;SDS011;38179;52.756;6.906;2022-12-18T14:53:39;20.25;;;11.23;;
52210;SDS011;38179;52.756;6.906;2022-12-18T14:56:15;18.90;;;11.82;;
52210;SDS011;38179;52.756;6.906;2022-12-18T14:59:16;18.30;;;11.52;;
52210;SDS011;38179;52.756;6.906;2022-12-18T15:04:43;19.60;;;11.38;;
52210;SDS011;38179;52.756;6.906;2022-12-18T15:09:40;18.40;;;10.60;;
52210;SDS011;38179;52.756;6.906;2022-12-18T15:15:01;17.25;;;11.07;;
52210;SDS011;38179;52.756;6.906;2022-12-18T15:17:28;20.15;;;12.07;;
52210;SDS011;38179;52.756;6.906;2022-12-18T15:19:58;16.45;;;11.07;;
52210;SDS011;38179;52.756;6.906;2022-12-18T15:22:33;18.98;;;12.15;;
52210;SDS011;38179;52.756;6.906;2022-12-18T15:25:00;19.15;;;11.52;;
52210;SDS011;38179;52.756;6.906;2022-12-18T15:27:29;18.08;;;11.40;;
52210;SDS011;38179;52.756;6.906;2022-12-18T15:32:28;17.75;;;11.25;;
52210;SDS011;38179;52.756;6.906;2022-12-18T15:37:41;21.60;;;11.95;;
52210;SDS011;38179;52.756;6.906;2022-12-18T15:40:08;18.95;;;11.70;;
52210;SDS011;38179;52.756;6.906;2022-12-18T15:42:38;18.13;;;11.02;;
52210;SDS011;38179;52.756;6.906;2022-12-18T15:45:23;17.67;;;11.40;;
52210;SDS011;38179;52.756;6.906;2022-12-18T15:47:49;19.80;;;12.68;;
52210;SDS011;38179;52.756;6.906;2022-12-18T15:50:15;19.80;;;11.32;;
52210;SDS011;38179;52.756;6.906;2022-12-18T15:52:41;19.13;;;11.30;;
52210;SDS011;38179;52.756;6.906;2022-12-18T15:55:22;18.23;;;10.45;;
52210;SDS011;38179;52.756;6.906;2022-12-18T15:58:08;18.17;;;10.73;;
52210;SDS011;38179;52.756;6.906;2022-12-18T16:00:35;17.52;;;10.60;;
52210;SDS011;38179;52.756;6.906;2022-12-18T16:03:03;17.60;;;11.37;;
52210;SDS011;38179;52.756;6.906;2022-12-18T16:05:30;18.67;;;11.57;;
52210;SDS011;38179;52.756;6.906;2022-12-18T16:07:56;18.10;;;11.82;;
52210;SDS011;38179;52.756;6.906;2022-12-18T16:10:24;18.83;;;11.35;;
52210;SDS011;38179;52.756;6.906;2022-12-18T16:12:51;17.58;;;11.63;;
52210;SDS011;38179;52.756;6.906;2022-12-18T16:15:17;19.23;;;10.90;;
52210;SDS011;38179;52.756;6.906;2022-12-18T16:17:43;15.85;;;10.68;;
52210;SDS011;38179;52.756;6.906;2022-12-18T16:20:13;21.08;;;12.40;;
52210;SDS011;38179;52.756;6.906;2022-12-18T16:22:44;16.98;;;11.57;;
52210;SDS011;38179;52.756;6.906;2022-12-18T16:25:29;21.70;;;12.40;;
52210;SDS011;38179;52.756;6.906;2022-12-18T16:27:55;19.75;;;10.77;;
52210;SDS011;38179;52.756;6.906;2022-12-18T16:30:26;18.80;;;11.15;;
52210;SDS011;38179;52.756;6.906;2022-12-18T16:32:54;17.17;;;10.80;;
52210;SDS011;38179;52.756;6.906;2022-12-18T16:35:20;18.10;;;11.43;;
52210;SDS011;38179;52.756;6.906;2022-12-18T16:37:46;17.95;;;11.23;;
52210;SDS011;38179;52.756;6.906;2022-12-18T16:40:13;17.10;;;11.13;;
52210;SDS011;38179;52.756;6.906;2022-12-18T16:42:40;16.48;;;10.85;;
52210;SDS011;38179;52.756;6.906;2022-12-18T16:45:09;17.52;;;11.05;;
52210;SDS011;38179;52.756;6.906;2022-12-18T16:47:37;16.45;;;11.32;;
52210;SDS011;38179;52.756;6.906;2022-12-18T16:50:03;17.23;;;10.82;;
52210;SDS011;38179;52.756;6.906;2022-12-18T16:52:30;15.15;;;10.13;;
52210;SDS011;38179;52.756;6.906;2022-12-18T16:54:56;18.88;;;10.65;;
52210;SDS011;38179;52.756;6.906;2022-12-18T16:57:22;19.42;;;11.23;;
52210;SDS011;38179;52.756;6.906;2022-12-18T16:59:48;16.83;;;11.55;;
52210;SDS011;38179;52.756;6.906;2022-12-18T17:04:41;15.50;;;10.80;;
52210;SDS011;38179;52.756;6.906;2022-12-18T17:07:08;18.73;;;11.27;;
52210;SDS011;38179;52.756;6.906;2022-12-18T17:09:34;19.88;;;12.30;;
52210;SDS011;38179;52.756;6.906;2022-12-18T17:12:01;16.75;;;10.05;;
52210;SDS011;38179;52.756;6.906;2022-12-18T17:14:27;18.25;;;11.13;;
52210;SDS011;38179;52.756;6.906;2022-12-18T17:16:53;16.38;;;10.80;;
52210;SDS011;38179;52.756;6.906;2022-12-18T17:19:21;16.70;;;11.07;;
52210;SDS011;38179;52.756;6.906;2022-12-18T17:21:48;17.00;;;10.77;;
52210;SDS011;38179;52.756;6.906;2022-12-18T17:24:15;16.67;;;10.73;;
52210;SDS011;38179;52.756;6.906;2022-12-18T17:26:41;17.00;;;10.93;;
52210;SDS011;38179;52.756;6.906;2022-12-18T17:29:08;16.38;;;10.95;;
52210;SDS011;38179;52.756;6.906;2022-12-18T17:31:37;17.02;;;10.25;;
52210;SDS011;38179;52.756;6.906;2022-12-18T17:34:04;16.75;;;10.45;;
52210;SDS011;38179;52.756;6.906;2022-12-18T17:36:30;17.48;;;10.88;;
52210;SDS011;38179;52.756;6.906;2022-12-18T17:38:58;19.25;;;11.48;;
52210;SDS011;38179;52.756;6.906;2022-12-18T17:41:26;18.45;;;11.52;;
52210;SDS011;38179;52.756;6.906;2022-12-18T17:43:55;17.77;;;11.15;;
52210;SDS011;38179;52.756;6.906;2022-12-18T17:46:21;16.70;;;11.38;;